sensor_id;sensor_type;location;lat;lon;timestamp;noise_LAeq;noise_LA_min;noise_LA_max;noise_LA01;noise_LA95
76338;Laerm;20358;50.272;19.026;2023-07-08T00:00:17;41.92;34.25;55.74;;
76338;Laerm;20358;50.272;19.026;2023-07-08T00:03:30;44.42;34.95;60.82;;
76338;Laerm;20358;50.272;19.026;2023-07-08T00:06:37;41.61;36.55;55.13;;
76338;Laerm;20358;50.272;19.026;2023-07-08T00:09:46;43.91;34.95;58.46;;
76338;Laerm;20358;50.272;19.026;2023-07-08T00:12:58;45.72;35.24;65.93;;
76338;Laerm;20358;50.272;19.026;2023-07-08T00:16:11;47.26;34.43;62.92;;
76338;Laerm;20358;50.272;19.026;2023-07-08T00:19:23;44.43;35.29;58.04;;
76338;Laerm;20358;50.272;19.026;2023-07-08T00:22:30;43.78;34.84;57.05;;
76338;Laerm;20358;50.272;19.026;2023-07-08T00:25:40;41.94;34.42;52.12;;
76338;Laerm;20358;50.272;19.026;2023-07-08T00:28:48;45.87;34.10;61.42;;
76338;Laerm;20358;50.272;19.026;2023-07-08T00:31:57;46.69;35.99;62.41;;
76338;Laerm;20358;50.272;19.026;2023-07-08T00:35:08;44.32;34.60;59.98;;
76338;Laerm;20358;50.272;19.026;2023-07-08T00:38:23;41.89;34.14;56.33;;
76338;Laerm;20358;50.272;19.026;2023-07-08T00:41:37;45.33;35.77;64.83;;
76338;Laerm;20358;50.272;19.026;2023-07-08T00:44:48;45.76;34.89;64.47;;
76338;Laerm;20358;50.272;19.026;2023-07-08T00:48:01;45.50;34.95;62.35;;
76338;Laerm;20358;50.272;19.026;2023-07-08T00:51:19;43.50;35.52;56.11;;
76338;Laerm;20358;50.272;19.026;2023-07-08T00:54:29;45.24;37.24;59.68;;
76338;Laerm;20358;50.272;19.026;2023-07-08T00:57:43;43.16;35.54;62.47;;
76338;Laerm;20358;50.272;19.026;2023-07-08T01:00:56;43.79;35.80;59.21;;
76338;Laerm;20358;50.272;19.026;2023-07-08T01:04:14;45.06;36.37;61.48;;
76338;Laerm;20358;50.272;19.026;2023-07-08T01:07:30;44.66;35.95;58.33;;
76338;Laerm;20358;50.272;19.026;2023-07-08T01:10:52;43.06;36.17;57.83;;
76338;Laerm;20358;50.272;19.026;2023-07-08T01:14:07;48.28;38.08;61.54;;
76338;Laerm;20358;50.272;19.026;2023-07-08T01:17:16;44.75;36.82;59.46;;
76338;Laerm;20358;50.272;19.026;2023-07-08T01:20:23;45.25;37.15;60.11;;
76338;Laerm;20358;50.272;19.026;2023-07-08T01:23:35;43.95;36.88;61.18;;
76338;Laerm;20358;50.272;19.026;2023-07-08T01:26:46;43.06;35.67;58.27;;
76338;Laerm;20358;50.272;19.026;2023-07-08T01:29:55;44.58;36.16;62.46;;
76338;Laerm;20358;50.272;19.026;2023-07-08T01:33:14;44.40;35.68;59.30;;
76338;Laerm;20358;50.272;19.026;2023-07-08T01:36:30;44.24;35.86;64.00;;
76338;Laerm;20358;50.272;19.026;2023-07-08T01:39:42;43.97;36.20;59.00;;
76338;Laerm;20358;50.272;19.026;2023-07-08T01:42:50;43.93;36.13;57.21;;
76338;Laerm;20358;50.272;19.026;2023-07-08T01:46:03;47.26;35.51;62.92;;
76338;Laerm;20358;50.272;19.026;2023-07-08T01:49:13;43.08;35.25;56.82;;
76338;Laerm;20358;50.272;19.026;2023-07-08T01:52:20;40.70;34.61;52.19;;
76338;Laerm;20358;50.272;19.026;2023-07-08T01:55:31;43.91;35.07;55.78;;
76338;Laerm;20358;50.272;19.026;2023-07-08T01:58:39;44.75;35.71;60.77;;
76338;Laerm;20358;50.272;19.026;2023-07-08T02:01:47;43.73;34.69;60.08;;
76338;Laerm;20358;50.272;19.026;2023-07-08T02:04:58;46.28;37.01;65.76;;
76338;Laerm;20358;50.272;19.026;2023-07-08T02:08:06;45.27;36.22;59.81;;
76338;Laerm;20358;50.272;19.026;2023-07-08T02:11:16;46.08;35.50;59.14;;
76338;Laerm;20358;50.272;19.026;2023-07-08T02:14:25;45.56;35.96;57.88;;
76338;Laerm;20358;50.272;19.026;2023-07-08T02:17:33;45.91;36.68;59.89;;
76338;Laerm;20358;50.272;19.026;2023-07-08T02:20:42;42.69;35.09;57.93;;
76338;Laerm;20358;50.272;19.026;2023-07-08T02:23:52;45.74;35.01;56.98;;
76338;Laerm;20358;50.272;19.026;2023-07-08T02:27:03;41.40;35.00;54.25;;
76338;Laerm;20358;50.272;19.026;2023-07-08T02:30:10;45.24;36.27;59.67;;
76338;Laerm;20358;50.272;19.026;2023-07-08T02:33:18;44.05;35.32;58.47;;
76338;Laerm;20358;50.272;19.026;2023-07-08T02:36:36;50.32;36.50;66.32;;
76338;Laerm;20358;50.272;19.026;2023-07-08T02:39:44;46.64;36.32;60.12;;
76338;Laerm;20358;50.272;19.026;2023-07-08T02:42:56;47.09;37.16;62.29;;
76338;Laerm;20358;50.272;19.026;2023-07-08T02:46:05;46.83;36.89;62.19;;
76338;Laerm;20358;50.272;19.026;2023-07-08T02:49:22;45.97;36.12;63.04;;
76338;Laerm;20358;50.272;19.026;2023-07-08T02:52:30;43.83;35.80;57.88;;
76338;Laerm;20358;50.272;19.026;2023-07-08T02:55:38;45.13;36.06;63.81;;
76338;Laerm;20358;50.272;19.026;2023-07-08T02:58:49;44.94;35.66;60.43;;
76338;Laerm;20358;50.272;19.026;2023-07-08T03:01:56;46.69;35.38;61.62;;
76338;Laerm;20358;50.272;19.026;2023-07-08T03:05:05;46.16;35.57;60.29;;
76338;Laerm;20358;50.272;19.026;2023-07-08T03:08:12;45.07;35.49;65.71;;
76338;Laerm;20358;50.272;19.026;2023-07-08T03:11:20;46.38;36.25;61.93;;
76338;Laerm;20358;50.272;19.026;2023-07-08T03:14:30;43.64;36.46;55.84;;
76338;Laerm;20358;50.272;19.026;2023-07-08T03:17:38;47.90;36.72;59.29;;
76338;Laerm;20358;50.272;19.026;2023-07-08T03:20:48;47.73;36.97;62.24;;
76338;Laerm;20358;50.272;19.026;2023-07-08T03:23:56;47.06;37.84;63.88;;
76338;Laerm;20358;50.272;19.026;2023-07-08T03:27:04;46.61;36.48;59.77;;
76338;Laerm;20358;50.272;19.026;2023-07-08T03:30:17;44.90;38.04;54.76;;
76338;Laerm;20358;50.272;19.026;2023-07-08T03:33:27;45.57;37.42;58.33;;
76338;Laerm;20358;50.272;19.026;2023-07-08T03:36:44;48.06;37.14;62.19;;
76338;Laerm;20358;50.272;19.026;2023-07-08T03:40:01;47.30;37.20;62.09;;
76338;Laerm;20358;50.272;19.026;2023-07-08T03:43:16;46.85;37.00;59.19;;
76338;Laerm;20358;50.272;19.026;2023-07-08T03:46:26;48.63;37.17;59.75;;
76338;Laerm;20358;50.272;19.026;2023-07-08T03:49:33;47.65;37.81;60.85;;
76338;Laerm;20358;50.272;19.026;2023-07-08T03:52:41;63.66;38.49;84.52;;
76338;Laerm;20358;50.272;19.026;2023-07-08T03:55:48;48.63;38.47;61.90;;
76338;Laerm;20358;50.272;19.026;2023-07-08T03:58:56;43.96;36.60;58.52;;
76338;Laerm;20358;50.272;19.026;2023-07-08T04:02:10;45.33;37.39;60.47;;
76338;Laerm;20358;50.272;19.026;2023-07-08T04:05:23;46.81;37.32;61.04;;
76338;Laerm;20358;50.272;19.026;2023-07-08T04:08:31;48.76;38.59;60.80;;
76338;Laerm;20358;50.272;19.026;2023-07-08T04:11:37;49.11;36.75;66.63;;
76338;Laerm;20358;50.272;19.026;2023-07-08T04:14:47;48.13;36.04;61.59;;
76338;Laerm;20358;50.272;19.026;2023-07-08T04:17:59;45.82;36.50;58.11;;
76338;Laerm;20358;50.272;19.026;2023-07-08T04:21:07;45.83;37.08;58.49;;
76338;Laerm;20358;50.272;19.026;2023-07-08T04:24:18;47.97;37.52;64.22;;
76338;Laerm;20358;50.272;19.026;2023-07-08T04:27:27;47.43;38.35;60.47;;
76338;Laerm;20358;50.272;19.026;2023-07-08T04:30:35;48.03;37.18;62.30;;
76338;Laerm;20358;50.272;19.026;2023-07-08T04:33:48;46.18;37.39;59.53;;
76338;Laerm;20358;50.272;19.026;2023-07-08T04:36:55;46.86;37.78;60.64;;
76338;Laerm;20358;50.272;19.026;2023-07-08T04:40:04;47.14;36.68;60.22;;
76338;Laerm;20358;50.272;19.026;2023-07-08T04:43:11;47.16;37.98;60.53;;
76338;Laerm;20358;50.272;19.026;2023-07-08T04:46:33;47.25;37.24;63.61;;
76338;Laerm;20358;50.272;19.026;2023-07-08T04:49:46;49.93;37.91;62.76;;
76338;Laerm;20358;50.272;19.026;2023-07-08T04:52:54;48.35;37.76;58.50;;
76338;Laerm;20358;50.272;19.026;2023-07-08T04:56:01;46.17;37.20;56.73;;
76338;Laerm;20358;50.272;19.026;2023-07-08T04:59:14;49.39;36.76;61.40;;
76338;Laerm;20358;50.272;19.026;2023-07-08T05:02:23;47.63;37.42;62.66;;
76338;Laerm;20358;50.272;19.026;2023-07-08T05:05:33;47.33;36.97;62.42;;
76338;Laerm;20358;50.272;19.026;2023-07-08T05:08:40;47.70;36.39;64.11;;
76338;Laerm;20358;50.272;19.026;2023-07-08T05:11:48;48.62;36.19;65.65;;
76338;Laerm;20358;50.272;19.026;2023-07-08T05:14:56;48.59;36.59;64.04;;
76338;Laerm;20358;50.272;19.026;2023-07-08T05:18:04;49.27;38.12;60.45;;
76338;Laerm;20358;50.272;19.026;2023-07-08T05:21:14;46.46;36.30;58.57;;
76338;Laerm;20358;50.272;19.026;2023-07-08T05:24:23;48.27;36.05;62.54;;
76338;Laerm;20358;50.272;19.026;2023-07-08T05:27:32;46.99;36.84;58.32;;
76338;Laerm;20358;50.272;19.026;2023-07-08T05:30:41;44.75;34.90;59.17;;
76338;Laerm;20358;50.272;19.026;2023-07-08T05:33:48;44.71;34.58;58.59;;
76338;Laerm;20358;50.272;19.026;2023-07-08T05:36:58;46.96;36.72;58.20;;
76338;Laerm;20358;50.272;19.026;2023-07-08T05:40:07;49.56;37.53;58.69;;
76338;Laerm;20358;50.272;19.026;2023-07-08T05:43:16;47.48;35.13;61.73;;
76338;Laerm;20358;50.272;19.026;2023-07-08T05:46:24;47.47;38.00;57.12;;
76338;Laerm;20358;50.272;19.026;2023-07-08T05:49:35;48.05;35.80;59.22;;
76338;Laerm;20358;50.272;19.026;2023-07-08T05:52:44;50.51;38.30;62.75;;
76338;Laerm;20358;50.272;19.026;2023-07-08T05:55:52;46.89;35.64;61.89;;
76338;Laerm;20358;50.272;19.026;2023-07-08T05:59:00;47.89;35.83;61.08;;
76338;Laerm;20358;50.272;19.026;2023-07-08T06:02:11;48.20;37.32;59.62;;
76338;Laerm;20358;50.272;19.026;2023-07-08T06:05:22;48.14;38.39;60.41;;
76338;Laerm;20358;50.272;19.026;2023-07-08T06:08:32;49.26;37.21;61.57;;
76338;Laerm;20358;50.272;19.026;2023-07-08T06:11:44;49.71;37.30;66.39;;
76338;Laerm;20358;50.272;19.026;2023-07-08T06:14:52;47.47;38.05;58.96;;
76338;Laerm;20358;50.272;19.026;2023-07-08T06:18:02;47.27;37.08;59.83;;
76338;Laerm;20358;50.272;19.026;2023-07-08T06:21:10;48.84;37.39;61.26;;
76338;Laerm;20358;50.272;19.026;2023-07-08T06:24:20;48.45;37.40;59.75;;
76338;Laerm;20358;50.272;19.026;2023-07-08T06:27:28;48.59;37.33;60.89;;
76338;Laerm;20358;50.272;19.026;2023-07-08T06:30:35;49.57;38.57;61.13;;
76338;Laerm;20358;50.272;19.026;2023-07-08T06:33:43;47.51;37.32;65.14;;
76338;Laerm;20358;50.272;19.026;2023-07-08T06:36:50;49.66;37.85;60.31;;
76338;Laerm;20358;50.272;19.026;2023-07-08T06:40:01;50.78;40.62;60.83;;
76338;Laerm;20358;50.272;19.026;2023-07-08T06:43:07;49.06;37.58;59.84;;
76338;Laerm;20358;50.272;19.026;2023-07-08T06:46:25;48.68;37.36;59.22;;
76338;Laerm;20358;50.272;19.026;2023-07-08T06:49:32;50.74;39.35;60.79;;
76338;Laerm;20358;50.272;19.026;2023-07-08T06:52:40;48.64;38.57;59.65;;
76338;Laerm;20358;50.272;19.026;2023-07-08T06:55:51;49.73;37.68;62.37;;
76338;Laerm;20358;50.272;19.026;2023-07-08T06:58:59;50.53;38.64;62.13;;
76338;Laerm;20358;50.272;19.026;2023-07-08T07:02:07;49.51;38.77;59.56;;
76338;Laerm;20358;50.272;19.026;2023-07-08T07:05:16;50.08;37.52;61.82;;
76338;Laerm;20358;50.272;19.026;2023-07-08T07:08:26;48.44;38.18;59.97;;
76338;Laerm;20358;50.272;19.026;2023-07-08T07:11:36;48.49;36.66;61.44;;
76338;Laerm;20358;50.272;19.026;2023-07-08T07:14:43;49.54;38.57;59.73;;
76338;Laerm;20358;50.272;19.026;2023-07-08T07:17:53;51.14;37.95;65.14;;
76338;Laerm;20358;50.272;19.026;2023-07-08T07:21:00;49.21;38.07;64.77;;
76338;Laerm;20358;50.272;19.026;2023-07-08T07:24:11;53.11;39.61;68.05;;
76338;Laerm;20358;50.272;19.026;2023-07-08T07:27:22;54.08;38.60;69.63;;
76338;Laerm;20358;50.272;19.026;2023-07-08T07:30:29;48.83;37.14;62.02;;
76338;Laerm;20358;50.272;19.026;2023-07-08T07:33:36;48.11;37.03;58.90;;
76338;Laerm;20358;50.272;19.026;2023-07-08T07:36:46;53.84;39.27;69.75;;
76338;Laerm;20358;50.272;19.026;2023-07-08T07:39:53;52.90;39.35;66.72;;
76338;Laerm;20358;50.272;19.026;2023-07-08T07:43:03;48.11;39.22;60.43;;
76338;Laerm;20358;50.272;19.026;2023-07-08T07:46:12;49.05;38.69;61.22;;
76338;Laerm;20358;50.272;19.026;2023-07-08T07:49:21;51.74;38.10;65.38;;
76338;Laerm;20358;50.272;19.026;2023-07-08T07:52:28;50.61;38.37;60.83;;
76338;Laerm;20358;50.272;19.026;2023-07-08T07:55:36;50.03;38.56;62.93;;
76338;Laerm;20358;50.272;19.026;2023-07-08T07:58:45;51.36;39.35;67.61;;
76338;Laerm;20358;50.272;19.026;2023-07-08T08:01:55;50.96;41.82;63.60;;
76338;Laerm;20358;50.272;19.026;2023-07-08T08:05:02;51.94;39.53;66.80;;
76338;Laerm;20358;50.272;19.026;2023-07-08T08:08:11;50.43;40.65;62.75;;
76338;Laerm;20358;50.272;19.026;2023-07-08T08:11:24;50.85;39.21;64.27;;
76338;Laerm;20358;50.272;19.026;2023-07-08T08:14:37;49.17;39.42;59.38;;
76338;Laerm;20358;50.272;19.026;2023-07-08T08:17:46;50.47;39.81;63.37;;
76338;Laerm;20358;50.272;19.026;2023-07-08T08:20:57;50.28;38.24;61.73;;
76338;Laerm;20358;50.272;19.026;2023-07-08T08:24:05;48.55;38.85;61.31;;
76338;Laerm;20358;50.272;19.026;2023-07-08T08:27:14;50.36;38.43;62.04;;
76338;Laerm;20358;50.272;19.026;2023-07-08T08:30:24;49.05;38.86;60.55;;
76338;Laerm;20358;50.272;19.026;2023-07-08T08:33:31;49.66;39.68;63.19;;
76338;Laerm;20358;50.272;19.026;2023-07-08T08:36:39;51.76;39.48;64.14;;
76338;Laerm;20358;50.272;19.026;2023-07-08T08:39:47;48.39;38.06;59.76;;
76338;Laerm;20358;50.272;19.026;2023-07-08T08:43:05;49.66;39.43;63.03;;
76338;Laerm;20358;50.272;19.026;2023-07-08T08:46:31;52.09;38.97;64.33;;
76338;Laerm;20358;50.272;19.026;2023-07-08T08:49:54;57.89;41.12;79.61;;
76338;Laerm;20358;50.272;19.026;2023-07-08T08:53:13;51.75;40.73;66.12;;
76338;Laerm;20358;50.272;19.026;2023-07-08T08:56:27;49.55;39.36;61.89;;
76338;Laerm;20358;50.272;19.026;2023-07-08T08:59:44;48.71;41.00;59.29;;
76338;Laerm;20358;50.272;19.026;2023-07-08T09:03:08;50.47;38.57;61.68;;
76338;Laerm;20358;50.272;19.026;2023-07-08T09:06:24;50.65;39.41;62.15;;
76338;Laerm;20358;50.272;19.026;2023-07-08T09:09:46;49.93;41.12;59.91;;
76338;Laerm;20358;50.272;19.026;2023-07-08T09:13:06;49.53;41.66;61.97;;
76338;Laerm;20358;50.272;19.026;2023-07-08T09:16:26;50.21;40.46;61.76;;
76338;Laerm;20358;50.272;19.026;2023-07-08T09:19:45;50.24;40.44;62.61;;
76338;Laerm;20358;50.272;19.026;2023-07-08T09:23:05;50.40;42.04;65.18;;
76338;Laerm;20358;50.272;19.026;2023-07-08T09:26:23;48.97;37.96;59.56;;
76338;Laerm;20358;50.272;19.026;2023-07-08T09:29:34;49.81;41.30;58.31;;
76338;Laerm;20358;50.272;19.026;2023-07-08T09:32:42;49.69;40.04;60.53;;
76338;Laerm;20358;50.272;19.026;2023-07-08T09:35:53;51.88;39.59;60.02;;
76338;Laerm;20358;50.272;19.026;2023-07-08T09:39:02;52.96;40.08;69.99;;
76338;Laerm;20358;50.272;19.026;2023-07-08T09:42:09;52.18;38.50;59.01;;
76338;Laerm;20358;50.272;19.026;2023-07-08T09:45:22;52.43;40.25;65.39;;
76338;Laerm;20358;50.272;19.026;2023-07-08T09:48:36;51.23;39.82;65.81;;
76338;Laerm;20358;50.272;19.026;2023-07-08T09:51:47;53.35;41.85;64.41;;
76338;Laerm;20358;50.272;19.026;2023-07-08T09:54:55;51.52;40.02;58.97;;
76338;Laerm;20358;50.272;19.026;2023-07-08T09:58:03;52.63;43.59;57.64;;
76338;Laerm;20358;50.272;19.026;2023-07-08T10:01:17;52.80;41.87;63.25;;
76338;Laerm;20358;50.272;19.026;2023-07-08T10:04:25;52.31;43.04;61.99;;
76338;Laerm;20358;50.272;19.026;2023-07-08T10:07:37;51.44;41.41;64.23;;
76338;Laerm;20358;50.272;19.026;2023-07-08T10:10:52;54.35;41.28;72.89;;
76338;Laerm;20358;50.272;19.026;2023-07-08T10:14:11;50.58;41.58;60.28;;
76338;Laerm;20358;50.272;19.026;2023-07-08T10:17:24;49.55;38.27;59.14;;
76338;Laerm;20358;50.272;19.026;2023-07-08T10:20:48;53.39;40.07;73.70;;
76338;Laerm;20358;50.272;19.026;2023-07-08T10:24:30;51.58;39.14;59.22;;
76338;Laerm;20358;50.272;19.026;2023-07-08T10:28:03;57.52;41.28;83.01;;
76338;Laerm;20358;50.272;19.026;2023-07-08T10:31:29;50.20;40.83;58.00;;
76338;Laerm;20358;50.272;19.026;2023-07-08T10:34:49;56.42;41.06;80.08;;
76338;Laerm;20358;50.272;19.026;2023-07-08T10:38:27;50.85;42.21;61.10;;
76338;Laerm;20358;50.272;19.026;2023-07-08T10:41:57;49.43;38.98;61.22;;
76338;Laerm;20358;50.272;19.026;2023-07-08T10:45:15;52.37;40.52;64.89;;
76338;Laerm;20358;50.272;19.026;2023-07-08T10:48:56;50.76;39.34;62.69;;
76338;Laerm;20358;50.272;19.026;2023-07-08T10:52:44;49.56;38.03;67.19;;
76338;Laerm;20358;50.272;19.026;2023-07-08T10:55:59;48.98;40.36;58.21;;
76338;Laerm;20358;50.272;19.026;2023-07-08T10:59:35;50.58;37.84;67.20;;
76338;Laerm;20358;50.272;19.026;2023-07-08T11:03:26;47.66;38.19;57.44;;
76338;Laerm;20358;50.272;19.026;2023-07-08T11:06:51;50.33;38.89;64.80;;
76338;Laerm;20358;50.272;19.026;2023-07-08T11:10:07;48.76;38.85;59.69;;
76338;Laerm;20358;50.272;19.026;2023-07-08T11:13:22;48.52;38.74;61.54;;
76338;Laerm;20358;50.272;19.026;2023-07-08T11:16:43;50.26;39.66;60.19;;
76338;Laerm;20358;50.272;19.026;2023-07-08T11:20:02;49.34;37.28;63.03;;
76338;Laerm;20358;50.272;19.026;2023-07-08T11:23:25;48.85;38.45;60.23;;
76338;Laerm;20358;50.272;19.026;2023-07-08T11:26:46;48.92;38.17;63.65;;
76338;Laerm;20358;50.272;19.026;2023-07-08T11:30:02;50.13;39.92;60.64;;
76338;Laerm;20358;50.272;19.026;2023-07-08T11:33:25;49.13;38.51;63.81;;
76338;Laerm;20358;50.272;19.026;2023-07-08T11:36:35;49.48;38.17;60.64;;
76338;Laerm;20358;50.272;19.026;2023-07-08T11:39:45;49.83;37.98;65.67;;
76338;Laerm;20358;50.272;19.026;2023-07-08T11:43:02;50.35;41.22;62.74;;
76338;Laerm;20358;50.272;19.026;2023-07-08T11:46:18;51.97;39.43;70.32;;
76338;Laerm;20358;50.272;19.026;2023-07-08T11:49:32;49.99;40.65;62.14;;
76338;Laerm;20358;50.272;19.026;2023-07-08T11:52:52;50.44;39.23;65.86;;
76338;Laerm;20358;50.272;19.026;2023-07-08T11:56:18;50.72;39.34;63.76;;
76338;Laerm;20358;50.272;19.026;2023-07-08T11:59:37;49.27;39.34;61.39;;
76338;Laerm;20358;50.272;19.026;2023-07-08T12:02:54;49.95;39.90;60.55;;
76338;Laerm;20358;50.272;19.026;2023-07-08T12:06:47;48.91;39.15;60.44;;
76338;Laerm;20358;50.272;19.026;2023-07-08T12:10:09;48.60;37.89;61.24;;
76338;Laerm;20358;50.272;19.026;2023-07-08T12:13:24;49.62;39.49;60.15;;
76338;Laerm;20358;50.272;19.026;2023-07-08T12:16:34;49.93;40.90;63.89;;
76338;Laerm;20358;50.272;19.026;2023-07-08T12:19:47;49.19;38.11;66.10;;
76338;Laerm;20358;50.272;19.026;2023-07-08T12:22:59;50.21;39.89;62.69;;
76338;Laerm;20358;50.272;19.026;2023-07-08T12:26:08;50.08;38.57;64.72;;
76338;Laerm;20358;50.272;19.026;2023-07-08T12:29:17;48.94;39.03;61.05;;
76338;Laerm;20358;50.272;19.026;2023-07-08T12:32:25;48.67;38.56;60.66;;
76338;Laerm;20358;50.272;19.026;2023-07-08T12:35:34;49.75;39.77;64.38;;
76338;Laerm;20358;50.272;19.026;2023-07-08T12:38:49;49.17;37.95;63.62;;
76338;Laerm;20358;50.272;19.026;2023-07-08T12:41:57;49.45;39.99;66.71;;
76338;Laerm;20358;50.272;19.026;2023-07-08T12:45:14;50.91;40.41;62.50;;
76338;Laerm;20358;50.272;19.026;2023-07-08T12:48:22;50.18;40.07;62.37;;
76338;Laerm;20358;50.272;19.026;2023-07-08T12:51:31;49.67;39.72;61.79;;
76338;Laerm;20358;50.272;19.026;2023-07-08T12:54:43;49.99;39.52;62.89;;
76338;Laerm;20358;50.272;19.026;2023-07-08T12:57:55;49.69;39.44;60.81;;
76338;Laerm;20358;50.272;19.026;2023-07-08T13:01:07;48.72;38.41;62.73;;
76338;Laerm;20358;50.272;19.026;2023-07-08T13:04:17;48.97;38.88;61.21;;
76338;Laerm;20358;50.272;19.026;2023-07-08T13:07:36;48.41;39.09;62.12;;
76338;Laerm;20358;50.272;19.026;2023-07-08T13:10:50;49.16;38.19;58.96;;
76338;Laerm;20358;50.272;19.026;2023-07-08T13:14:07;49.04;38.65;61.73;;
76338;Laerm;20358;50.272;19.026;2023-07-08T13:17:16;48.86;39.19;62.92;;
76338;Laerm;20358;50.272;19.026;2023-07-08T13:20:25;49.85;38.97;60.20;;
76338;Laerm;20358;50.272;19.026;2023-07-08T13:23:37;47.96;38.89;59.19;;
76338;Laerm;20358;50.272;19.026;2023-07-08T13:26:49;49.66;39.36;60.52;;
76338;Laerm;20358;50.272;19.026;2023-07-08T13:30:18;48.21;38.74;63.10;;
76338;Laerm;20358;50.272;19.026;2023-07-08T13:33:31;49.71;39.26;61.09;;
76338;Laerm;20358;50.272;19.026;2023-07-08T13:36:45;47.48;38.50;58.63;;
76338;Laerm;20358;50.272;19.026;2023-07-08T13:39:56;49.16;39.13;62.62;;
76338;Laerm;20358;50.272;19.026;2023-07-08T13:43:07;49.01;38.17;60.47;;
76338;Laerm;20358;50.272;19.026;2023-07-08T13:46:32;50.72;38.81;64.40;;
76338;Laerm;20358;50.272;19.026;2023-07-08T13:49:45;47.88;37.99;61.45;;
76338;Laerm;20358;50.272;19.026;2023-07-08T13:52:56;49.48;38.60;59.75;;
76338;Laerm;20358;50.272;19.026;2023-07-08T13:56:13;51.25;38.15;66.50;;
76338;Laerm;20358;50.272;19.026;2023-07-08T13:59:29;50.63;39.50;67.74;;
76338;Laerm;20358;50.272;19.026;2023-07-08T14:02:43;50.14;36.96;63.13;;
76338;Laerm;20358;50.272;19.026;2023-07-08T14:05:51;49.12;38.96;61.54;;
76338;Laerm;20358;50.272;19.026;2023-07-08T14:09:12;49.12;38.02;60.16;;
76338;Laerm;20358;50.272;19.026;2023-07-08T14:12:23;49.84;39.25;66.73;;
76338;Laerm;20358;50.272;19.026;2023-07-08T14:15:34;48.63;39.70;60.41;;
76338;Laerm;20358;50.272;19.026;2023-07-08T14:18:43;49.54;40.55;64.04;;
76338;Laerm;20358;50.272;19.026;2023-07-08T14:21:58;48.68;39.08;63.21;;
76338;Laerm;20358;50.272;19.026;2023-07-08T14:25:09;49.85;39.30;60.49;;
76338;Laerm;20358;50.272;19.026;2023-07-08T14:28:21;48.85;38.18;61.13;;
76338;Laerm;20358;50.272;19.026;2023-07-08T14:31:41;48.18;39.00;60.48;;
76338;Laerm;20358;50.272;19.026;2023-07-08T14:34:55;48.65;39.70;59.71;;
76338;Laerm;20358;50.272;19.026;2023-07-08T14:38:10;48.30;39.74;63.50;;
76338;Laerm;20358;50.272;19.026;2023-07-08T14:41:18;48.50;39.21;62.02;;
76338;Laerm;20358;50.272;19.026;2023-07-08T14:44:32;49.31;39.26;63.20;;
76338;Laerm;20358;50.272;19.026;2023-07-08T14:47:49;49.41;38.40;63.32;;
76338;Laerm;20358;50.272;19.026;2023-07-08T14:50:56;49.83;38.30;60.92;;
76338;Laerm;20358;50.272;19.026;2023-07-08T14:54:05;50.90;38.71;67.04;;
76338;Laerm;20358;50.272;19.026;2023-07-08T14:57:16;49.77;37.60;61.01;;
76338;Laerm;20358;50.272;19.026;2023-07-08T15:00:24;50.06;39.46;66.52;;
76338;Laerm;20358;50.272;19.026;2023-07-08T15:03:40;48.91;38.38;62.62;;
76338;Laerm;20358;50.272;19.026;2023-07-08T15:06:49;50.97;41.24;63.97;;
76338;Laerm;20358;50.272;19.026;2023-07-08T15:09:56;48.75;39.99;58.94;;
76338;Laerm;20358;50.272;19.026;2023-07-08T15:13:04;49.05;38.50;62.46;;
76338;Laerm;20358;50.272;19.026;2023-07-08T15:16:15;49.71;40.83;63.68;;
76338;Laerm;20358;50.272;19.026;2023-07-08T15:19:26;50.03;39.12;63.19;;
76338;Laerm;20358;50.272;19.026;2023-07-08T15:22:35;50.16;39.08;63.61;;
76338;Laerm;20358;50.272;19.026;2023-07-08T15:25:47;48.59;40.49;60.96;;
76338;Laerm;20358;50.272;19.026;2023-07-08T15:28:55;49.88;41.31;60.49;;
76338;Laerm;20358;50.272;19.026;2023-07-08T15:32:09;47.80;37.87;61.45;;
76338;Laerm;20358;50.272;19.026;2023-07-08T15:35:45;49.90;39.50;62.65;;
76338;Laerm;20358;50.272;19.026;2023-07-08T15:38:55;54.09;39.61;76.47;;
76338;Laerm;20358;50.272;19.026;2023-07-08T15:42:11;48.52;40.39;61.80;;
76338;Laerm;20358;50.272;19.026;2023-07-08T15:45:25;50.50;38.99;64.56;;
76338;Laerm;20358;50.272;19.026;2023-07-08T15:48:33;48.54;39.06;62.56;;
76338;Laerm;20358;50.272;19.026;2023-07-08T15:51:45;50.40;39.21;65.39;;
76338;Laerm;20358;50.272;19.026;2023-07-08T15:54:53;49.55;39.20;59.73;;
76338;Laerm;20358;50.272;19.026;2023-07-08T15:58:09;48.94;39.45;60.39;;
76338;Laerm;20358;50.272;19.026;2023-07-08T16:01:25;50.49;38.92;66.77;;
76338;Laerm;20358;50.272;19.026;2023-07-08T16:04:35;52.03;39.32;69.74;;
76338;Laerm;20358;50.272;19.026;2023-07-08T16:07:48;48.58;37.33;59.80;;
76338;Laerm;20358;50.272;19.026;2023-07-08T16:11:01;49.19;39.65;62.87;;
76338;Laerm;20358;50.272;19.026;2023-07-08T16:14:15;49.51;38.23;61.36;;
76338;Laerm;20358;50.272;19.026;2023-07-08T16:17:24;50.09;38.73;66.98;;
76338;Laerm;20358;50.272;19.026;2023-07-08T16:20:31;49.42;39.22;59.88;;
76338;Laerm;20358;50.272;19.026;2023-07-08T16:23:42;50.85;39.35;63.32;;
76338;Laerm;20358;50.272;19.026;2023-07-08T16:26:52;50.75;37.98;66.43;;
76338;Laerm;20358;50.272;19.026;2023-07-08T16:30:01;49.37;40.81;59.84;;
76338;Laerm;20358;50.272;19.026;2023-07-08T16:33:12;49.78;41.64;61.74;;
76338;Laerm;20358;50.272;19.026;2023-07-08T16:36:24;49.82;40.73;66.69;;
76338;Laerm;20358;50.272;19.026;2023-07-08T16:39:35;49.84;40.56;59.82;;
76338;Laerm;20358;50.272;19.026;2023-07-08T16:42:52;50.72;39.79;61.39;;
76338;Laerm;20358;50.272;19.026;2023-07-08T16:46:00;48.84;39.99;64.09;;
76338;Laerm;20358;50.272;19.026;2023-07-08T16:49:08;50.51;38.72;65.65;;
76338;Laerm;20358;50.272;19.026;2023-07-08T16:52:17;50.07;39.53;59.96;;
76338;Laerm;20358;50.272;19.026;2023-07-08T16:55:31;49.42;38.04;64.76;;
76338;Laerm;20358;50.272;19.026;2023-07-08T16:58:38;50.92;40.18;65.15;;
76338;Laerm;20358;50.272;19.026;2023-07-08T17:01:47;49.40;39.24;62.19;;
76338;Laerm;20358;50.272;19.026;2023-07-08T17:05:19;49.22;39.02;62.58;;
76338;Laerm;20358;50.272;19.026;2023-07-08T17:08:29;49.88;39.04;61.54;;
76338;Laerm;20358;50.272;19.026;2023-07-08T17:11:41;52.56;41.50;68.23;;
76338;Laerm;20358;50.272;19.026;2023-07-08T17:14:49;49.61;39.55;61.76;;
76338;Laerm;20358;50.272;19.026;2023-07-08T17:18:01;52.73;41.31;66.90;;
76338;Laerm;20358;50.272;19.026;2023-07-08T17:21:15;51.93;39.73;65.94;;
76338;Laerm;20358;50.272;19.026;2023-07-08T17:24:22;50.50;40.34;63.19;;
76338;Laerm;20358;50.272;19.026;2023-07-08T17:27:34;49.21;39.48;64.06;;
76338;Laerm;20358;50.272;19.026;2023-07-08T17:30:46;50.81;38.29;60.09;;
76338;Laerm;20358;50.272;19.026;2023-07-08T17:33:58;50.94;40.01;63.41;;
76338;Laerm;20358;50.272;19.026;2023-07-08T17:37:09;49.42;39.02;60.51;;
76338;Laerm;20358;50.272;19.026;2023-07-08T17:40:21;51.40;39.76;72.09;;